Time;durP1;ratioP1;P1;durP2;ratioP2;P2;SDS_P1;SDS_P2;PMS_P1;PMS_P2;Temp;Humidity;BMP_temperature;BMP_pressure;BME280_temperature;BME280_humidity;BME280_pressure;Samples;Min_cycle;Max_cycle;Signal;HPM_P1;HPM_P2
2024/01/28 00:00:43;;;;;;;17.55;7.90;;;2.50;99.90;;;;;;5086719;28;20060;-74
2024/01/28 00:03:09;;;;;;;19.77;8.45;;;2.50;99.90;;;;;;5081550;28;20054;-74
2024/01/28 00:05:36;;;;;;;24.45;14.45;;;2.40;99.90;;;;;;5085617;28;20060;-74
2024/01/28 00:08:04;;;;;;;21.58;9.02;;;2.50;99.90;;;;;;5083247;28;20052;-74
2024/01/28 00:10:30;;;;;;;14.88;8.15;;;2.50;99.90;;;;;;5063137;28;20040;-74
2024/01/28 00:12:56;;;;;;;18.58;8.10;;;2.50;99.90;;;;;;5082619;28;20555;-74
2024/01/28 00:15:22;;;;;;;21.67;9.68;;;2.40;99.90;;;;;;5080275;28;20036;-74
2024/01/28 00:17:48;;;;;;;23.00;8.85;;;2.50;99.90;;;;;;5084932;28;20122;-74
2024/01/28 00:20:13;;;;;;;21.25;9.35;;;2.50;99.90;;;;;;5080530;28;20123;-74
2024/01/28 00:22:39;;;;;;;21.77;8.93;;;2.50;99.90;;;;;;5078012;28;20039;-74
2024/01/28 00:25:05;;;;;;;18.98;8.40;;;2.50;99.90;;;;;;5083907;28;20480;-74
2024/01/28 00:27:30;;;;;;;18.25;8.68;;;2.50;99.90;;;;;;5081274;28;20040;-74
2024/01/28 00:29:56;;;;;;;17.65;8.90;;;2.50;99.90;;;;;;5078595;28;20044;-74
2024/01/28 00:32:22;;;;;;;17.02;8.32;;;2.50;99.90;;;;;;5063835;28;20400;-74
2024/01/28 00:34:47;;;;;;;19.30;8.57;;;2.50;99.90;;;;;;5080398;28;20124;-74
2024/01/28 00:37:13;;;;;;;17.70;8.88;;;2.50;99.90;;;;;;5070712;28;20518;-74
2024/01/28 00:39:39;;;;;;;18.48;7.97;;;2.50;99.90;;;;;;5061683;28;20044;-74
2024/01/28 00:42:05;;;;;;;14.73;7.85;;;2.50;99.90;;;;;;5087543;28;20037;-74
2024/01/28 00:44:34;;;;;;;18.88;8.52;;;2.50;99.90;;;;;;5086749;28;20040;-74
2024/01/28 00:46:59;;;;;;;16.70;8.18;;;2.50;99.90;;;;;;5054295;28;20040;-74
2024/01/28 00:49:29;;;;;;;18.90;8.93;;;2.50;99.90;;;;;;5084908;28;20130;-74
2024/01/28 00:51:58;;;;;;;19.20;8.18;;;2.50;99.90;;;;;;5079651;28;20076;-74
2024/01/28 00:54:25;;;;;;;21.80;8.18;;;2.50;99.90;;;;;;5080983;28;20039;-74
2024/01/28 00:56:54;;;;;;;18.50;7.82;;;2.50;99.90;;;;;;5066911;28;20428;-74
2024/01/28 00:59:20;;;;;;;18.50;7.68;;;2.50;99.90;;;;;;5080951;28;20412;-74
2024/01/28 01:01:45;;;;;;;15.25;8.27;;;2.50;99.90;;;;;;5077743;28;20124;-74
2024/01/28 01:04:11;;;;;;;17.95;8.80;;;2.50;99.90;;;;;;5079113;28;20047;-73
2024/01/28 01:06:39;;;;;;;20.20;8.27;;;2.50;99.90;;;;;;5078211;28;20427;-74
2024/01/28 01:09:08;;;;;;;20.35;7.90;;;2.60;99.90;;;;;;5065043;28;20079;-74
2024/01/28 01:11:34;;;;;;;23.25;8.02;;;2.60;99.90;;;;;;5063969;28;20052;-74
2024/01/28 01:14:01;;;;;;;16.10;8.02;;;2.60;99.90;;;;;;5077103;28;20044;-73
2024/01/28 01:16:27;;;;;;;22.00;8.93;;;2.60;99.90;;;;;;5086298;28;20048;-74
2024/01/28 01:18:53;;;;;;;18.13;7.93;;;2.60;99.90;;;;;;5078852;28;20388;-74
2024/01/28 01:21:19;;;;;;;15.55;7.80;;;2.60;99.90;;;;;;5057315;28;20059;-74
2024/01/28 01:23:45;;;;;;;18.42;7.80;;;2.60;99.90;;;;;;5081080;28;20048;-74
2024/01/28 01:26:10;;;;;;;19.55;8.30;;;2.60;99.90;;;;;;5079780;28;20388;-74
2024/01/28 01:28:36;;;;;;;21.02;8.27;;;2.60;99.90;;;;;;5080204;28;20403;-74
2024/01/28 01:31:03;;;;;;;16.20;6.60;;;2.60;99.90;;;;;;5084179;28;20082;-73
2024/01/28 01:33:29;;;;;;;19.90;7.85;;;2.60;99.90;;;;;;5083228;28;20039;-74
2024/01/28 01:35:54;;;;;;;21.33;8.93;;;2.60;99.90;;;;;;5063289;28;20525;-74
2024/01/28 01:38:20;;;;;;;16.40;7.55;;;2.60;99.90;;;;;;5086935;28;20119;-74
2024/01/28 01:40:46;;;;;;;22.48;7.90;;;2.60;99.90;;;;;;5076207;28;20716;-74
2024/01/28 01:43:13;;;;;;;15.77;8.02;;;2.60;99.90;;;;;;5077095;28;20052;-74
2024/01/28 01:45:40;;;;;;;19.42;8.40;;;2.60;99.90;;;;;;5080154;28;20046;-74
2024/01/28 01:48:12;;;;;;;19.58;8.30;;;2.60;99.90;;;;;;5077445;28;20056;-73
2024/01/28 01:50:41;;;;;;;21.15;9.63;;;2.50;99.90;;;;;;5085820;28;20483;-74
2024/01/28 01:53:08;;;;;;;16.60;8.00;;;2.50;99.90;;;;;;5063747;28;20049;-74
2024/01/28 01:55:35;;;;;;;18.95;7.85;;;2.50;99.90;;;;;;5077413;28;20044;-74
2024/01/28 01:58:01;;;;;;;18.90;8.63;;;2.60;99.90;;;;;;5084834;28;20439;-74
2024/01/28 02:00:28;;;;;;;18.80;8.32;;;2.60;99.90;;;;;;5079667;28;20837;-73
2024/01/28 02:02:54;;;;;;;14.80;8.17;;;2.60;99.90;;;;;;5066544;28;20122;-74
2024/01/28 02:05:19;;;;;;;17.17;8.50;;;2.60;99.90;;;;;;5062774;28;20506;-74
2024/01/28 02:07:45;;;;;;;20.50;9.05;;;2.60;99.90;;;;;;5067190;28;20042;-74
2024/01/28 02:10:11;;;;;;;23.48;9.25;;;2.60;99.90;;;;;;5081222;28;20035;-74
2024/01/28 02:12:38;;;;;;;17.42;7.82;;;2.60;99.90;;;;;;5085594;28;20051;-74
2024/01/28 02:15:09;;;;;;;18.73;8.30;;;2.60;99.90;;;;;;5079688;28;20513;-74
2024/01/28 02:17:35;;;;;;;22.45;12.73;;;2.70;99.90;;;;;;5087366;28;20309;-74
2024/01/28 02:20:01;;;;;;;17.42;8.50;;;2.70;99.90;;;;;;5082702;28;20074;-74
2024/01/28 02:22:27;;;;;;;15.95;8.55;;;2.70;99.90;;;;;;5084732;28;20126;-74
2024/01/28 02:24:53;;;;;;;20.08;8.32;;;2.70;99.90;;;;;;5081031;28;20451;-73
2024/01/28 02:27:18;;;;;;;21.05;8.48;;;2.70;99.90;;;;;;5068623;28;20119;-74
2024/01/28 02:29:44;;;;;;;25.80;9.38;;;2.70;99.90;;;;;;5087929;28;21012;-74
2024/01/28 02:32:12;;;;;;;20.20;8.27;;;2.70;99.90;;;;;;5087142;28;20048;-73
2024/01/28 02:34:38;;;;;;;19.30;8.05;;;2.70;99.90;;;;;;5084505;28;20044;-74
2024/01/28 02:37:04;;;;;;;23.55;13.10;;;2.70;99.90;;;;;;5077687;28;20779;-73
2024/01/28 02:39:29;;;;;;;21.67;8.82;;;2.70;99.90;;;;;;5082277;28;20044;-73
2024/01/28 02:41:55;;;;;;;21.05;8.38;;;2.70;99.90;;;;;;5087239;28;20123;-73
2024/01/28 02:44:20;;;;;;;18.67;8.60;;;2.70;99.90;;;;;;5063864;28;20075;-74
2024/01/28 02:46:46;;;;;;;21.67;8.32;;;2.60;99.90;;;;;;5083513;28;20056;-74
2024/01/28 02:49:12;;;;;;;18.50;8.68;;;2.60;99.90;;;;;;5069315;28;20181;-74
2024/01/28 02:51:37;;;;;;;24.75;8.95;;;2.60;99.90;;;;;;5084376;28;20049;-74
2024/01/28 02:54:03;;;;;;;18.75;8.18;;;2.60;99.90;;;;;;5087620;28;20040;-74
2024/01/28 02:56:29;;;;;;;17.00;7.90;;;2.60;99.90;;;;;;5085029;28;20138;-74
2024/01/28 02:58:54;;;;;;;16.63;8.30;;;2.60;99.90;;;;;;5081124;28;20139;-74
2024/01/28 03:01:20;;;;;;;17.15;8.73;;;2.60;99.90;;;;;;5062450;28;20049;-74
2024/01/28 03:03:46;;;;;;;19.05;8.60;;;2.50;99.90;;;;;;5059928;28;20072;-74
2024/01/28 03:06:12;;;;;;;20.73;9.07;;;2.50;99.90;;;;;;5056249;28;20615;-74
2024/01/28 03:08:37;;;;;;;20.80;9.10;;;2.50;99.90;;;;;;5063631;28;20036;-74
2024/01/28 03:11:03;;;;;;;20.23;9.15;;;2.50;99.90;;;;;;5064322;28;20070;-74
2024/01/28 03:13:28;;;;;;;15.60;7.53;;;2.40;99.90;;;;;;5057630;28;20442;-74
2024/01/28 03:15:55;;;;;;;18.50;8.18;;;2.40;99.90;;;;;;5056251;28;20073;-74
2024/01/28 03:18:21;;;;;;;18.73;9.15;;;2.30;99.90;;;;;;5061259;28;20041;-74
2024/01/28 03:20:47;;;;;;;17.77;7.87;;;2.30;99.90;;;;;;5064190;28;20052;-74
2024/01/28 03:23:14;;;;;;;19.85;8.88;;;2.30;99.90;;;;;;5065706;28;20766;-74
2024/01/28 03:25:40;;;;;;;16.50;8.52;;;2.30;99.90;;;;;;5058664;28;20368;-74
2024/01/28 03:28:06;;;;;;;21.65;9.20;;;2.30;99.90;;;;;;5062051;28;20051;-74
2024/01/28 03:30:32;;;;;;;24.85;8.38;;;2.30;99.90;;;;;;5066150;28;20064;-74
2024/01/28 03:32:58;;;;;;;20.33;8.35;;;2.30;99.90;;;;;;5066566;28;20040;-74
2024/01/28 03:35:24;;;;;;;17.95;8.48;;;2.30;99.90;;;;;;5059942;28;20063;-74
2024/01/28 03:37:50;;;;;;;16.48;8.57;;;2.30;99.90;;;;;;5062136;28;20472;-74
2024/01/28 03:40:16;;;;;;;19.73;9.45;;;2.20;99.90;;;;;;5066418;28;20080;-74
2024/01/28 03:42:41;;;;;;;17.25;8.73;;;2.20;99.90;;;;;;5067262;28;20051;-74
2024/01/28 03:45:09;;;;;;;16.17;7.95;;;2.20;99.90;;;;;;5063491;28;20067;-73
2024/01/28 03:47:38;;;;;;;18.60;8.40;;;2.20;99.90;;;;;;5060190;28;20041;-74
2024/01/28 03:50:05;;;;;;;18.55;8.60;;;2.20;99.90;;;;;;5060914;28;20452;-74
2024/01/28 03:52:30;;;;;;;17.85;8.32;;;2.20;99.90;;;;;;5068465;28;20600;-73
2024/01/28 03:54:56;;;;;;;16.80;8.85;;;2.20;99.90;;;;;;5056125;28;20162;-74
2024/01/28 03:57:22;;;;;;;22.17;8.43;;;2.20;99.90;;;;;;5060469;28;20075;-74
2024/01/28 03:59:48;;;;;;;16.88;8.85;;;2.20;99.90;;;;;;5061596;28;20032;-73
2024/01/28 04:02:17;;;;;;;15.27;7.90;;;2.20;99.90;;;;;;5072077;28;20060;-74
2024/01/28 04:04:43;;;;;;;18.92;9.00;;;2.20;99.90;;;;;;5077405;28;20101;-73
2024/01/28 04:07:09;;;;;;;17.95;8.90;;;2.20;99.90;;;;;;5065990;28;20052;-73
2024/01/28 04:09:37;;;;;;;20.33;8.30;;;2.10;99.90;;;;;;5082059;28;20040;-74
2024/01/28 04:12:04;;;;;;;22.95;9.43;;;2.10;99.90;;;;;;5061146;28;20063;-73
2024/01/28 04:14:30;;;;;;;19.65;7.78;;;2.00;99.90;;;;;;5085041;28;20325;-74
2024/01/28 04:16:56;;;;;;;16.15;8.52;;;2.00;99.90;;;;;;5062289;28;20063;-74
2024/01/28 04:19:22;;;;;;;21.58;8.18;;;2.00;99.90;;;;;;5086950;28;20047;-74
2024/01/28 04:21:48;;;;;;;21.40;8.40;;;2.00;99.90;;;;;;5087328;28;20044;-73
2024/01/28 04:24:14;;;;;;;17.58;8.43;;;1.90;99.90;;;;;;5077981;28;20163;-74
2024/01/28 04:26:39;;;;;;;16.85;8.02;;;2.00;99.90;;;;;;5085926;28;20044;-74
2024/01/28 04:29:06;;;;;;;17.92;8.70;;;2.00;99.90;;;;;;5079770;28;20072;-73
2024/01/28 04:31:31;;;;;;;18.05;8.40;;;2.00;99.90;;;;;;5077541;28;20040;-73
2024/01/28 04:34:00;;;;;;;19.48;8.32;;;2.00;99.90;;;;;;5081017;28;20041;-74
2024/01/28 04:36:28;;;;;;;19.80;9.00;;;2.00;99.90;;;;;;5065277;28;20074;-73
2024/01/28 04:38:54;;;;;;;17.35;8.10;;;2.00;99.90;;;;;;5080293;28;20052;-74
2024/01/28 04:41:20;;;;;;;18.98;8.35;;;2.10;99.90;;;;;;5082990;28;20124;-74
2024/01/28 04:43:45;;;;;;;18.45;8.85;;;2.00;99.90;;;;;;5081531;28;20093;-74
2024/01/28 04:46:16;;;;;;;19.75;7.82;;;2.00;99.90;;;;;;5086597;28;20036;-74
2024/01/28 04:48:42;;;;;;;15.32;8.20;;;2.00;99.90;;;;;;5074485;28;20062;-74
2024/01/28 04:51:07;;;;;;;17.10;8.63;;;2.10;99.90;;;;;;5086686;28;20510;-73
2024/01/28 04:53:33;;;;;;;17.95;8.55;;;2.10;99.90;;;;;;5082622;28;20131;-73
2024/01/28 04:55:59;;;;;;;18.25;8.60;;;2.00;99.90;;;;;;5081211;28;20495;-74
2024/01/28 04:58:24;;;;;;;21.70;8.80;;;2.10;99.90;;;;;;5077315;28;20055;-74
2024/01/28 05:00:50;;;;;;;18.88;8.85;;;2.00;99.90;;;;;;5081552;28;20431;-73
2024/01/28 05:03:16;;;;;;;21.85;8.43;;;2.00;99.90;;;;;;5055542;28;20127;-74
2024/01/28 05:05:42;;;;;;;19.52;8.30;;;2.00;99.90;;;;;;5075757;28;20487;-73
2024/01/28 05:08:09;;;;;;;24.85;9.00;;;1.90;99.90;;;;;;5075535;28;20049;-73
2024/01/28 05:10:34;;;;;;;16.67;8.23;;;1.90;99.90;;;;;;5082255;28;20046;-73
2024/01/28 05:13:00;;;;;;;19.92;8.77;;;1.90;99.90;;;;;;5060989;28;20044;-73
2024/01/28 05:15:26;;;;;;;17.10;8.38;;;1.90;99.90;;;;;;5085611;28;20414;-73
2024/01/28 05:17:51;;;;;;;20.73;8.80;;;1.90;99.90;;;;;;5084689;28;20045;-74
2024/01/28 05:20:18;;;;;;;19.73;8.55;;;1.80;99.90;;;;;;5059558;28;20085;-74
2024/01/28 05:22:43;;;;;;;24.30;10.05;;;1.80;99.90;;;;;;5082001;28;20093;-73
2024/01/28 05:25:09;;;;;;;18.55;8.55;;;1.70;99.90;;;;;;5062242;28;20041;-73
2024/01/28 05:27:36;;;;;;;21.65;8.85;;;1.70;99.90;;;;;;5065580;28;20041;-73
2024/01/28 05:30:03;;;;;;;23.80;8.43;;;1.60;99.90;;;;;;5079570;28;20135;-73
2024/01/28 05:32:29;;;;;;;16.30;8.65;;;1.60;99.90;;;;;;5082053;28;20044;-73
2024/01/28 05:35:01;;;;;;;16.15;8.65;;;1.70;99.90;;;;;;5081902;28;20032;-73
2024/01/28 05:37:27;;;;;;;18.63;8.13;;;1.70;99.90;;;;;;5079077;28;20479;-74
2024/01/28 05:39:52;;;;;;;16.45;8.73;;;1.60;99.90;;;;;;5085912;28;20072;-74
2024/01/28 05:42:18;;;;;;;21.85;9.00;;;1.70;99.90;;;;;;5065945;28;20029;-74
2024/01/28 05:44:44;;;;;;;16.95;9.20;;;1.70;99.90;;;;;;5069652;28;20505;-74
2024/01/28 05:47:09;;;;;;;18.10;8.77;;;1.60;99.90;;;;;;5078406;28;20037;-74
2024/01/28 05:49:35;;;;;;;17.73;8.63;;;1.60;99.90;;;;;;5081719;28;20031;-74
2024/01/28 05:52:00;;;;;;;19.00;8.88;;;1.50;99.90;;;;;;5077104;28;20036;-74
2024/01/28 05:54:26;;;;;;;20.17;9.30;;;1.60;99.90;;;;;;5084175;28;20039;-74
2024/01/28 05:56:52;;;;;;;21.33;8.70;;;1.60;99.90;;;;;;5086642;28;20046;-74
2024/01/28 05:59:20;;;;;;;18.55;9.23;;;1.50;99.90;;;;;;5084185;28;20045;-74
2024/01/28 06:01:45;;;;;;;16.70;8.45;;;1.50;99.90;;;;;;5081964;28;20050;-74
2024/01/28 06:04:11;;;;;;;21.80;8.27;;;1.50;99.90;;;;;;5083426;28;20044;-74
2024/01/28 06:06:37;;;;;;;17.55;8.80;;;1.50;99.90;;;;;;5062989;28;20055;-74
2024/01/28 06:09:04;;;;;;;18.33;8.65;;;1.40;99.90;;;;;;5084188;28;20123;-74
2024/01/28 06:11:30;;;;;;;;;;;1.40;99.90;;;;;;5079857;28;20067;-74
2024/01/28 06:13:56;;;;;;;19.23;7.55;;;1.40;99.90;;;;;;5070381;28;19963;-74
2024/01/28 06:16:21;;;;;;;16.75;8.27;;;1.40;99.90;;;;;;5080918;28;20480;-74
2024/01/28 06:18:47;;;;;;;16.30;7.78;;;1.40;99.90;;;;;;5085177;28;20046;-74
2024/01/28 06:21:13;;;;;;;17.30;8.88;;;1.40;99.90;;;;;;5078561;28;20041;-74
2024/01/28 06:23:40;;;;;;;19.00;7.93;;;1.40;99.90;;;;;;5088034;28;20040;-74
2024/01/28 06:26:07;;;;;;;17.10;7.85;;;1.40;99.90;;;;;;5074660;28;20049;-74
2024/01/28 06:28:33;;;;;;;20.90;7.90;;;1.40;99.90;;;;;;5084255;28;20495;-74
2024/01/28 06:30:59;;;;;;;20.58;7.45;;;1.40;99.90;;;;;;5075642;28;20034;-74
2024/01/28 06:33:24;;;;;;;24.63;8.52;;;1.40;99.90;;;;;;5078352;28;20056;-74
2024/01/28 06:35:50;;;;;;;17.98;7.78;;;1.40;99.90;;;;;;5080043;28;20046;-74
2024/01/28 06:38:15;;;;;;;16.80;8.35;;;1.40;99.90;;;;;;5084227;28;20361;-74
2024/01/28 06:40:41;;;;;;;15.73;7.10;;;1.40;99.90;;;;;;5066332;28;20540;-74
2024/01/28 06:43:07;;;;;;;15.82;6.97;;;1.40;99.90;;;;;;5078903;28;20059;-74
2024/01/28 06:45:32;;;;;;;13.70;6.88;;;1.40;99.90;;;;;;5080559;28;20067;-74
2024/01/28 06:47:58;;;;;;;15.48;6.72;;;1.30;99.90;;;;;;5085062;28;20072;-74
2024/01/28 06:50:24;;;;;;;13.35;6.72;;;1.40;99.90;;;;;;5063303;28;20075;-74
2024/01/28 06:52:49;;;;;;;14.77;7.35;;;1.30;99.90;;;;;;5081686;28;20480;-74
2024/01/28 06:55:15;;;;;;;20.17;7.30;;;1.30;99.90;;;;;;5079883;28;20032;-74
2024/01/28 06:57:41;;;;;;;15.82;7.55;;;1.40;99.90;;;;;;5078610;28;20135;-74
2024/01/28 07:00:10;;;;;;;14.77;6.90;;;1.30;99.90;;;;;;5082012;28;20097;-74
2024/01/28 07:02:38;;;;;;;15.52;6.38;;;1.30;99.90;;;;;;5063452;28;20048;-74
2024/01/28 07:05:04;;;;;;;18.35;6.53;;;1.30;99.90;;;;;;5062550;28;20044;-74
2024/01/28 07:07:30;;;;;;;16.48;6.53;;;1.30;99.90;;;;;;5068609;28;20052;-74
2024/01/28 07:09:56;;;;;;;16.33;7.10;;;1.30;99.90;;;;;;5083499;28;20035;-74
2024/01/28 07:12:21;;;;;;;19.23;6.78;;;1.30;99.90;;;;;;5084530;28;20032;-74
2024/01/28 07:14:47;;;;;;;12.23;6.97;;;1.30;99.90;;;;;;5068045;28;20054;-74
2024/01/28 07:17:12;;;;;;;12.95;6.00;;;1.30;99.90;;;;;;5070790;28;20107;-74
2024/01/28 07:19:40;;;;;;;12.50;6.60;;;1.20;99.90;;;;;;5080926;28;20047;-74
2024/01/28 07:22:06;;;;;;;14.88;7.80;;;1.20;99.90;;;;;;5084505;28;20411;-74
2024/01/28 07:24:32;;;;;;;16.20;6.95;;;1.20;99.90;;;;;;5083972;28;20048;-74
2024/01/28 07:26:58;;;;;;;17.67;6.55;;;1.20;99.90;;;;;;5082673;28;20059;-74
2024/01/28 07:29:24;;;;;;;12.57;6.07;;;1.20;99.90;;;;;;5065589;28;20048;-74
2024/01/28 07:31:51;;;;;;;15.90;6.50;;;1.20;99.90;;;;;;5083544;28;20040;-74
2024/01/28 07:34:19;;;;;;;14.18;6.65;;;1.20;99.90;;;;;;5082586;28;20582;-74
2024/01/28 07:36:50;;;;;;;13.68;6.78;;;1.20;99.90;;;;;;5082880;28;20062;-74
2024/01/28 07:39:16;;;;;;;13.05;5.82;;;1.20;99.90;;;;;;5072470;28;20448;-74
2024/01/28 07:41:41;;;;;;;11.75;5.95;;;1.30;99.90;;;;;;5086298;28;20036;-74
2024/01/28 07:44:08;;;;;;;13.50;6.30;;;1.20;99.90;;;;;;5078784;28;20040;-74
2024/01/28 07:46:34;;;;;;;14.27;6.18;;;1.40;99.90;;;;;;5060954;28;20048;-74
2024/01/28 07:48:59;;;;;;;13.80;5.82;;;1.30;99.90;;;;;;5060333;28;20097;-74
2024/01/28 07:51:25;;;;;;;12.40;5.80;;;1.40;99.90;;;;;;5077675;28;20040;-74
2024/01/28 07:53:51;;;;;;;14.10;5.93;;;1.40;99.90;;;;;;5081502;28;20105;-74
2024/01/28 07:56:16;;;;;;;14.38;6.07;;;1.40;99.90;;;;;;5060844;28;20116;-77
2024/01/28 07:58:42;;;;;;;12.18;5.60;;;1.40;99.90;;;;;;5059384;28;20855;-74
2024/01/28 08:01:08;;;;;;;14.82;6.00;;;1.40;99.90;;;;;;5063870;28;20139;-78
2024/01/28 08:03:34;;;;;;;16.60;5.95;;;1.40;99.90;;;;;;5082736;28;20072;-80
2024/01/28 08:05:59;;;;;;;11.98;5.32;;;1.40;99.90;;;;;;5088319;28;20079;-83
2024/01/28 08:08:25;;;;;;;17.23;6.00;;;1.40;99.90;;;;;;5068096;28;20548;-95
2024/01/28 08:10:51;;;;;;;15.18;5.50;;;1.40;99.90;;;;;;5090688;28;20495;-80
2024/01/28 08:13:19;;;;;;;9.45;5.93;;;1.40;99.90;;;;;;5085586;28;20048;-88
2024/01/28 08:15:45;;;;;;;14.65;8.07;;;1.40;99.90;;;;;;5077557;28;20051;-86
2024/01/28 08:18:11;;;;;;;12.00;5.13;;;1.50;99.90;;;;;;5070454;28;20115;-82
2024/01/28 08:20:37;;;;;;;15.10;4.82;;;1.60;99.90;;;;;;5070647;28;20131;-80
2024/01/28 08:23:04;;;;;;;13.30;4.63;;;1.60;99.90;;;;;;5085853;28;20180;-85
2024/01/28 08:25:29;;;;;;;9.50;4.75;;;1.50;99.90;;;;;;5058794;28;20048;-85
2024/01/28 08:27:55;;;;;;;9.30;4.82;;;1.60;99.90;;;;;;5080611;28;20056;-84
2024/01/28 08:30:22;;;;;;;10.38;5.03;;;1.60;99.90;;;;;;5079633;28;20434;-84
2024/01/28 08:32:48;;;;;;;14.65;4.93;;;1.60;99.90;;;;;;5063412;28;20048;-85
2024/01/28 08:35:14;;;;;;;10.27;4.45;;;1.60;99.90;;;;;;5062377;28;20177;-87
2024/01/28 08:37:40;;;;;;;10.85;4.93;;;1.70;99.90;;;;;;5073673;28;20055;-81
2024/01/28 08:40:08;;;;;;;14.63;5.03;;;1.70;99.90;;;;;;5078669;28;20033;-80
2024/01/28 08:42:34;;;;;;;8.90;4.40;;;1.70;99.90;;;;;;5079192;28;20044;-74
2024/01/28 08:45:00;;;;;;;10.50;4.60;;;1.80;99.90;;;;;;5074424;28;20047;-74
2024/01/28 08:47:26;;;;;;;12.88;5.35;;;1.80;99.90;;;;;;5078654;28;20033;-75
2024/01/28 08:49:52;;;;;;;10.43;4.20;;;1.90;99.90;;;;;;5067873;28;20052;-75
2024/01/28 08:52:20;;;;;;;12.75;4.82;;;1.90;99.90;;;;;;5076659;28;20040;-75
2024/01/28 08:54:46;;;;;;;10.32;4.10;;;2.00;99.90;;;;;;5053232;28;20044;-75
2024/01/28 08:57:12;;;;;;;11.63;4.07;;;2.00;99.90;;;;;;5072010;28;20045;-75
2024/01/28 08:59:38;;;;;;;11.10;4.13;;;2.00;99.90;;;;;;5060398;28;20390;-75
2024/01/28 09:02:04;;;;;;;11.65;4.55;;;2.10;99.90;;;;;;5059071;28;20040;-75
2024/01/28 09:04:30;;;;;;;12.60;4.40;;;2.10;99.90;;;;;;5051956;28;20168;-75
2024/01/28 09:06:56;;;;;;;14.90;4.68;;;2.20;99.90;;;;;;5060951;28;20043;-76
2024/01/28 09:09:22;;;;;;;9.00;4.15;;;2.20;99.90;;;;;;5049371;28;20048;-77
2024/01/28 09:11:47;;;;;;;8.85;4.28;;;2.30;99.90;;;;;;5053522;28;20041;-77
2024/01/28 09:14:13;;;;;;;10.15;4.20;;;2.30;99.90;;;;;;5057174;28;20047;-76
2024/01/28 09:16:39;;;;;;;12.82;4.43;;;2.40;99.90;;;;;;5063356;28;20043;-80
2024/01/28 09:19:04;;;;;;;9.75;4.65;;;2.40;99.90;;;;;;5056053;28;20041;-77
2024/01/28 09:21:30;;;;;;;9.35;3.90;;;2.50;99.90;;;;;;5055525;28;20052;-78
2024/01/28 09:23:57;;;;;;;10.57;4.25;;;2.50;99.90;;;;;;5062801;28;20411;-78
2024/01/28 09:26:23;;;;;;;9.25;4.63;;;2.60;99.90;;;;;;5057598;28;20047;-77
2024/01/28 09:28:48;;;;;;;10.18;4.20;;;2.60;99.90;;;;;;5049449;28;20048;-80
2024/01/28 09:31:14;;;;;;;10.43;4.55;;;2.70;99.90;;;;;;5067284;28;20068;-78
2024/01/28 09:33:40;;;;;;;7.65;3.80;;;2.70;99.90;;;;;;5057366;28;20541;-78
2024/01/28 09:36:06;;;;;;;7.15;4.22;;;2.80;99.90;;;;;;5062521;28;20385;-74
2024/01/28 09:38:32;;;;;;;10.32;4.18;;;2.80;99.90;;;;;;5061765;28;20041;-75
2024/01/28 09:41:27;;;;;;;9.15;3.92;;;2.90;99.90;;;;;;5063890;28;20054;-76
2024/01/28 09:43:53;;;;;;;12.35;4.25;;;3.00;99.90;;;;;;5039200;28;20561;-76
2024/01/28 09:46:18;;;;;;;9.20;4.25;;;3.00;99.90;;;;;;5054354;28;20045;-76
2024/01/28 09:48:48;;;;;;;8.00;3.80;;;3.10;99.90;;;;;;5046324;28;20041;-76
2024/01/28 09:51:18;;;;;;;11.95;4.20;;;3.10;99.90;;;;;;5049425;28;20052;-76
2024/01/28 09:53:44;;;;;;;12.20;4.63;;;3.20;99.90;;;;;;5059573;28;20041;-76
2024/01/28 09:56:13;;;;;;;9.57;4.10;;;3.20;99.90;;;;;;5053774;28;20385;-76
2024/01/28 09:58:40;;;;;;;7.50;3.95;;;3.30;99.90;;;;;;5057678;28;20041;-76
2024/01/28 10:01:07;;;;;;;11.63;3.53;;;3.30;99.90;;;;;;5052825;28;20079;-76
2024/01/28 10:03:34;;;;;;;9.23;4.53;;;3.40;99.90;;;;;;5067356;28;20094;-76
2024/01/28 10:05:59;;;;;;;6.85;3.55;;;3.40;99.90;;;;;;5048853;28;20040;-76
2024/01/28 10:08:27;;;;;;;10.43;4.05;;;3.50;99.90;;;;;;5067455;28;20551;-77
2024/01/28 10:10:56;;;;;;;7.38;3.70;;;3.60;99.90;;;;;;5062226;28;20074;-77
2024/01/28 10:13:21;;;;;;;9.25;3.08;;;3.70;99.90;;;;;;5050308;28;20049;-76
2024/01/28 10:15:57;;;;;;;7.82;3.08;;;3.70;99.90;;;;;;5066487;28;20048;-76
2024/01/28 10:18:24;;;;;;;9.88;3.63;;;3.80;99.90;;;;;;5067286;28;20040;-76
2024/01/28 10:20:50;;;;;;;11.88;3.15;;;3.80;99.90;;;;;;5048790;28;20075;-76
2024/01/28 10:23:16;;;;;;;6.20;3.25;;;3.90;99.90;;;;;;5051212;28;20099;-76
2024/01/28 10:25:45;;;;;;;8.77;3.20;;;4.00;99.90;;;;;;5061410;28;20228;-76
2024/01/28 10:28:11;;;;;;;9.13;3.05;;;4.00;99.90;;;;;;5062921;28;20044;-76
2024/01/28 10:30:37;;;;;;;7.07;3.67;;;4.10;99.90;;;;;;5082915;28;20839;-76
2024/01/28 10:33:03;;;;;;;7.80;3.38;;;4.10;99.90;;;;;;5058299;28;20093;-76
2024/01/28 10:35:28;;;;;;;6.30;2.85;;;4.20;99.90;;;;;;5055439;28;20095;-74
2024/01/28 10:37:56;;;;;;;8.82;3.50;;;4.30;99.90;;;;;;5070406;28;20052;-76
2024/01/28 10:40:25;;;;;;;7.60;3.17;;;4.30;99.90;;;;;;5052021;28;20126;-76
2024/01/28 10:42:56;;;;;;;11.20;3.38;;;4.40;99.90;;;;;;5069360;28;20045;-77
2024/01/28 10:45:23;;;;;;;10.15;3.42;;;4.40;99.90;;;;;;5083406;28;20300;-76
2024/01/28 10:47:53;;;;;;;;;;;4.50;99.90;;;;;;5062955;28;20110;-76
2024/01/28 10:50:21;;;;;;;7.38;3.40;;;4.60;99.90;;;;;;5051604;28;19955;-76
2024/01/28 10:52:48;;;;;;;5.22;3.22;;;4.60;99.90;;;;;;5051877;28;20037;-76
2024/01/28 10:55:16;;;;;;;7.13;3.00;;;4.70;99.90;;;;;;5055965;28;20100;-76
2024/01/28 10:57:42;;;;;;;6.03;2.85;;;4.70;99.90;;;;;;5053849;28;20075;-76
2024/01/28 11:00:10;;;;;;;7.53;3.58;;;4.80;99.90;;;;;;5054890;28;20486;-76
2024/01/28 11:02:39;;;;;;;8.55;3.20;;;4.90;99.90;;;;;;5060385;28;20057;-77
2024/01/28 11:05:06;;;;;;;7.20;3.80;;;4.90;99.90;;;;;;5068672;28;20045;-77
2024/01/28 11:07:31;;;;;;;5.77;2.53;;;5.00;99.90;;;;;;5074107;28;20567;-77
2024/01/28 11:10:00;;;;;;;11.25;4.40;;;5.10;99.90;;;;;;5065477;28;20036;-77
2024/01/28 11:12:28;;;;;;;10.15;4.43;;;5.20;99.90;;;;;;5068941;28;20045;-77
2024/01/28 11:14:57;;;;;;;8.45;2.45;;;5.20;99.90;;;;;;5054579;28;20088;-77
2024/01/28 11:17:33;;;;;;;6.57;2.65;;;5.30;99.90;;;;;;5083946;28;20093;-77
2024/01/28 11:20:07;;;;;;;5.97;2.60;;;5.40;99.90;;;;;;5069316;28;20052;-77
2024/01/28 11:22:52;;;;;;;5.70;2.60;;;5.40;99.90;;;;;;5070213;28;20036;-77
2024/01/28 11:25:21;;;;;;;6.28;2.53;;;5.50;99.90;;;;;;5079017;28;20044;-76
2024/01/28 11:27:51;;;;;;;6.53;2.55;;;5.50;99.90;;;;;;5053787;28;20046;-77
2024/01/28 11:30:24;;;;;;;8.40;2.80;;;5.60;99.90;;;;;;5064228;28;20048;-77
2024/01/28 11:32:53;;;;;;;10.93;4.38;;;5.70;99.90;;;;;;5054898;28;20044;-77
2024/01/28 11:35:19;;;;;;;6.50;2.78;;;5.80;99.90;;;;;;5064377;28;20068;-77
2024/01/28 11:37:52;;;;;;;6.97;2.33;;;5.90;99.90;;;;;;5069672;28;20083;-77
2024/01/28 11:40:25;;;;;;;7.78;3.05;;;5.90;99.90;;;;;;5068951;28;20136;-77
2024/01/28 11:42:53;;;;;;;7.03;2.50;;;6.00;99.90;;;;;;5069207;28;20074;-77
2024/01/28 11:45:21;;;;;;;3.58;2.25;;;6.10;99.90;;;;;;5068444;28;20691;-77
2024/01/28 11:47:46;;;;;;;5.75;2.67;;;6.10;99.90;;;;;;5059049;28;20131;-77
2024/01/28 11:50:12;;;;;;;7.13;3.70;;;6.20;99.90;;;;;;5057086;28;20764;-77
2024/01/28 11:52:38;;;;;;;10.20;2.17;;;6.30;99.90;;;;;;5067973;28;20404;-77
2024/01/28 11:55:14;;;;;;;5.53;2.13;;;6.40;99.90;;;;;;5072204;28;20071;-77
2024/01/28 11:57:41;;;;;;;5.85;2.13;;;6.50;99.90;;;;;;5068671;28;20076;-77
2024/01/28 12:00:09;;;;;;;7.57;3.03;;;6.50;99.90;;;;;;5067748;28;20047;-77
2024/01/28 12:02:36;;;;;;;7.25;2.97;;;6.60;99.90;;;;;;5068862;28;20052;-77
2024/01/28 12:05:03;;;;;;;7.55;2.90;;;6.70;99.90;;;;;;5057262;28;20043;-77
2024/01/28 12:07:32;;;;;;;6.72;3.10;;;6.80;99.90;;;;;;5077366;28;20051;-78
2024/01/28 12:10:02;;;;;;;6.55;3.22;;;6.90;99.90;;;;;;5071364;28;20052;-77
2024/01/28 12:12:29;;;;;;;7.70;3.20;;;7.00;99.90;;;;;;5086249;28;20044;-77
2024/01/28 12:14:58;;;;;;;4.15;2.15;;;7.10;99.90;;;;;;5064031;28;20044;-77
2024/01/28 12:17:24;;;;;;;5.95;2.95;;;7.10;99.90;;;;;;5075747;28;20083;-74
2024/01/28 12:19:53;;;;;;;4.65;2.03;;;7.20;99.90;;;;;;5068553;28;20072;-76
2024/01/28 12:22:18;;;;;;;7.65;3.55;;;7.30;99.90;;;;;;5078537;28;20064;-77
2024/01/28 12:24:47;;;;;;;6.57;3.20;;;7.20;99.90;;;;;;5079129;28;20087;-77
2024/01/28 12:27:16;;;;;;;4.60;2.28;;;7.30;99.90;;;;;;5085875;28;20043;-76
2024/01/28 12:29:42;;;;;;;7.47;3.38;;;7.30;99.90;;;;;;5058634;28;20054;-76
2024/01/28 12:32:10;;;;;;;5.55;2.70;;;7.40;99.90;;;;;;5084186;28;20122;-77
2024/01/28 12:34:39;;;;;;;6.60;3.20;;;7.40;99.90;;;;;;5049640;28;20052;-76
2024/01/28 12:37:04;;;;;;;5.70;2.03;;;7.50;99.90;;;;;;5052090;28;20904;-76
2024/01/28 12:39:30;;;;;;;4.28;2.65;;;7.60;99.90;;;;;;5050594;28;20048;-77
2024/01/28 12:41:56;;;;;;;6.30;3.38;;;7.60;99.90;;;;;;5080974;28;20033;-77
2024/01/28 12:44:21;;;;;;;5.00;1.88;;;7.70;99.90;;;;;;5069496;28;20045;-77
2024/01/28 12:46:47;;;;;;;7.97;2.90;;;7.70;99.90;;;;;;5081182;28;20036;-77